createdAt,value
2023-05-23T00:00:27.502Z,9.10
2023-05-23T00:05:30.816Z,9.75
2023-05-23T00:10:35.473Z,8.68
2023-05-23T00:15:39.127Z,8.10
2023-05-23T00:36:00.625Z,9.63
2023-05-23T00:41:05.741Z,9.53
2023-05-23T00:46:09.895Z,10.05
2023-05-23T00:51:13.591Z,10.35
2023-05-23T00:56:18.394Z,10.32
2023-05-23T01:01:22.286Z,10.23
2023-05-23T01:06:25.768Z,10.67
2023-05-23T01:11:36.395Z,10.20
2023-05-23T01:16:49.455Z,10.13
2023-05-23T01:21:56.587Z,10.75
2023-05-23T01:27:22.080Z,10.20
2023-05-23T01:32:28.478Z,10.57
2023-05-23T01:37:33.681Z,10.73
2023-05-23T01:42:37.128Z,10.98
2023-05-23T01:47:42.690Z,11.00
2023-05-23T01:52:47.546Z,11.05
2023-05-23T01:57:52.487Z,10.82
2023-05-23T02:02:57.406Z,11.10
2023-05-23T02:08:00.893Z,11.10
2023-05-23T02:13:04.254Z,11.25
2023-05-23T02:18:09.020Z,12.00
2023-05-23T02:23:16.323Z,11.80
2023-05-23T02:28:19.696Z,11.50
2023-05-23T02:33:27.088Z,11.77
2023-05-23T02:38:30.994Z,11.30
2023-05-23T02:43:34.373Z,10.77
2023-05-23T02:48:40.331Z,11.00
2023-05-23T02:53:43.876Z,11.45
2023-05-23T02:58:47.428Z,10.88
2023-05-23T03:03:52.193Z,11.15
2023-05-23T03:08:55.794Z,10.40
2023-05-23T03:13:59.221Z,10.33
2023-05-23T03:19:04.973Z,10.50
2023-05-23T03:24:08.566Z,10.85
2023-05-23T03:29:12.199Z,11.20
2023-05-23T03:34:17.007Z,10.40
2023-05-23T03:39:20.658Z,10.05
2023-05-23T03:44:24.125Z,10.93
2023-05-23T03:49:29.227Z,10.10
2023-05-23T03:54:33.158Z,11.02
2023-05-23T03:59:39.871Z,10.43
2023-05-23T04:04:51.866Z,10.70
2023-05-23T04:09:55.761Z,10.30
2023-05-23T04:14:59.789Z,10.47
2023-05-23T04:20:06.303Z,10.30
2023-05-23T04:25:10.903Z,10.57
2023-05-23T04:30:22.393Z,10.23
2023-05-23T04:35:29.372Z,10.07
2023-05-23T04:40:32.849Z,10.65
2023-05-23T04:45:58.969Z,10.47
2023-05-23T04:51:15.537Z,10.75
2023-05-23T04:56:28.503Z,10.50
2023-05-23T05:01:32.508Z,10.13
2023-05-23T05:06:38.288Z,10.68
2023-05-23T05:11:41.787Z,10.98
2023-05-23T05:16:46.124Z,10.35
2023-05-23T05:21:51.347Z,10.00
2023-05-23T05:26:55.469Z,9.15
2023-05-23T05:31:59.130Z,8.95
2023-05-23T05:37:04.137Z,8.98
2023-05-23T05:42:07.939Z,8.50
2023-05-23T05:47:13.268Z,8.68
2023-05-23T05:52:18.138Z,8.40
2023-05-23T05:57:21.534Z,8.02
2023-05-23T06:02:25.047Z,8.60
2023-05-23T06:07:30.518Z,8.77
2023-05-23T06:12:33.960Z,8.57
2023-05-23T06:17:37.677Z,7.90
2023-05-23T06:22:42.657Z,8.47
2023-05-23T06:27:46.397Z,8.60
2023-05-23T06:32:49.754Z,9.30
2023-05-23T06:37:56.519Z,7.82
2023-05-23T06:42:59.897Z,7.88
2023-05-23T06:48:17.278Z,8.07
2023-05-23T06:53:23.135Z,7.90
2023-05-23T06:58:27.356Z,7.78
2023-05-23T07:03:33.870Z,7.80
2023-05-23T07:08:42.788Z,7.60
2023-05-23T07:13:46.795Z,6.97
2023-05-23T07:18:59.477Z,7.10
2023-05-23T07:24:04.512Z,7.00
2023-05-23T07:29:08.878Z,7.00
2023-05-23T07:34:13.277Z,7.80
2023-05-23T07:39:31.424Z,6.97
2023-05-23T07:44:38.304Z,8.55
2023-05-23T07:49:42.308Z,7.20
2023-05-23T07:54:47.149Z,7.03
2023-05-23T07:59:51.148Z,6.57
2023-05-23T08:04:54.698Z,6.47
2023-05-23T08:09:59.735Z,6.10
2023-05-23T08:15:04.878Z,5.80
2023-05-23T08:20:14.928Z,5.97
2023-05-23T08:25:20.036Z,6.90
2023-05-23T08:30:25.476Z,6.25
2023-05-23T08:35:33.757Z,5.47
2023-05-23T08:40:41.318Z,5.27
2023-05-23T08:45:50.539Z,5.33
2023-05-23T08:50:54.779Z,5.80
2023-05-23T08:56:02.950Z,4.90
2023-05-23T09:01:18.459Z,5.25
2023-05-23T09:06:23.105Z,5.10
2023-05-23T09:11:28.157Z,4.72
2023-05-23T09:16:36.341Z,4.90
2023-05-23T09:21:46.622Z,5.38
2023-05-23T09:26:57.040Z,5.20
2023-05-23T09:32:11.609Z,5.70
2023-05-23T09:37:19.683Z,5.20
2023-05-23T09:42:24.781Z,5.78
2023-05-23T09:47:28.412Z,5.57
2023-05-23T09:52:38.558Z,5.43
2023-05-23T09:57:45.470Z,5.75
2023-05-23T10:03:11.137Z,5.75
2023-05-23T10:08:17.420Z,5.63
2023-05-23T10:13:23.406Z,6.28
2023-05-23T10:18:30.806Z,6.40
2023-05-23T10:23:35.294Z,6.50
2023-05-23T10:28:41.592Z,5.68
2023-05-23T10:33:53.064Z,5.97
2023-05-23T10:39:03.232Z,5.40
2023-05-23T10:44:24.532Z,5.15
2023-05-23T10:49:40.036Z,5.78
2023-05-23T10:54:45.419Z,6.53
2023-05-23T10:59:52.077Z,6.00
2023-05-23T11:05:19.772Z,6.25
2023-05-23T11:10:23.146Z,6.25
2023-05-23T11:15:27.899Z,6.40
2023-05-23T11:20:32.282Z,6.95
2023-05-23T11:25:43.876Z,6.57
2023-05-23T11:35:54.842Z,6.63
2023-05-23T11:40:58.315Z,6.03
2023-05-23T11:46:09.595Z,6.38
2023-05-23T11:51:13.293Z,6.28
2023-05-23T11:56:20.211Z,6.30
2023-05-23T12:01:31.397Z,5.90
2023-05-23T12:06:35.200Z,5.93
2023-05-23T12:11:40.654Z,5.93
2023-05-23T12:16:47.745Z,6.30
2023-05-23T12:21:51.488Z,5.90
2023-05-23T12:26:56.088Z,6.22
2023-05-23T12:37:18.918Z,5.35
2023-05-23T12:42:23.363Z,5.20
2023-05-23T12:47:28.208Z,5.33
2023-05-23T12:52:31.646Z,5.18
2023-05-23T12:57:36.256Z,5.20
2023-05-23T13:02:41.014Z,5.68
2023-05-23T13:07:44.475Z,5.20
2023-05-23T13:12:47.821Z,5.10
2023-05-23T13:17:52.972Z,4.70
2023-05-23T13:27:59.641Z,5.37
2023-05-23T13:33:05.076Z,5.25
2023-05-23T13:38:08.489Z,4.90
2023-05-23T13:43:11.845Z,4.28
2023-05-23T13:48:16.751Z,4.60
2023-05-23T13:53:21.591Z,4.40
2023-05-23T13:58:24.900Z,6.20
2023-05-23T14:03:29.577Z,4.60
2023-05-23T14:08:33.031Z,4.15
2023-05-23T14:13:36.387Z,4.50
2023-05-23T14:18:41.304Z,4.38
2023-05-23T14:23:44.772Z,4.15
2023-05-23T14:28:48.220Z,4.00
2023-05-23T14:33:53.110Z,4.30
2023-05-23T14:38:56.477Z,4.20
2023-05-23T14:43:59.828Z,3.65
2023-05-23T14:49:04.555Z,3.83
2023-05-23T14:54:07.948Z,3.80
2023-05-23T14:59:11.260Z,3.80
2023-05-23T15:04:16.145Z,3.63
2023-05-23T15:09:19.465Z,3.20
2023-05-23T15:14:23.355Z,2.88
2023-05-23T15:19:28.344Z,2.70
2023-05-23T15:24:31.731Z,3.58
2023-05-23T15:29:39.835Z,2.83
2023-05-23T15:34:44.653Z,2.58
2023-05-23T15:39:48.846Z,2.40
2023-05-23T15:44:52.475Z,2.30
2023-05-23T15:49:57.409Z,2.20
2023-05-23T15:55:01.993Z,2.30
2023-05-23T16:00:06.224Z,2.30
2023-05-23T16:05:16.640Z,1.67
2023-05-23T16:10:20.457Z,1.90
2023-05-23T16:15:24.983Z,1.90
2023-05-23T16:20:29.700Z,1.90
2023-05-23T16:25:33.091Z,1.83
2023-05-23T16:30:36.464Z,1.87
2023-05-23T16:35:41.609Z,2.10
2023-05-23T16:40:45.900Z,2.00
2023-05-23T16:45:49.460Z,2.08
2023-05-23T16:50:54.833Z,2.30
2023-05-23T16:55:58.151Z,2.00
2023-05-23T17:01:01.473Z,2.10
2023-05-23T17:06:06.357Z,2.05
2023-05-23T17:11:09.732Z,3.23
2023-05-23T17:16:14.131Z,2.67
2023-05-23T17:21:18.891Z,2.40
2023-05-23T17:26:22.293Z,3.30
2023-05-23T17:36:31.004Z,2.30
2023-05-23T17:41:34.388Z,2.72
2023-05-23T17:46:37.907Z,2.53
2023-05-23T17:51:43.006Z,2.38
2023-05-23T17:56:46.904Z,2.50
2023-05-23T18:01:50.769Z,2.30
2023-05-23T18:06:55.438Z,2.80
2023-05-23T18:11:59.677Z,2.30
2023-05-23T18:17:03.080Z,2.17
2023-05-23T18:22:07.947Z,2.30
2023-05-23T18:27:11.299Z,2.47
2023-05-23T18:32:14.686Z,2.60
2023-05-23T18:37:19.398Z,2.50
2023-05-23T18:42:22.746Z,2.70
2023-05-23T18:47:26.824Z,2.73
2023-05-23T18:52:33.648Z,2.80
2023-05-23T18:57:36.986Z,2.80
2023-05-23T19:02:44.549Z,3.15
2023-05-23T19:07:49.390Z,2.90
2023-05-23T19:12:52.923Z,3.43
2023-05-23T19:17:56.353Z,3.13
2023-05-23T19:23:01.005Z,2.50
2023-05-23T19:28:04.409Z,3.07
2023-05-23T19:33:07.944Z,2.40
2023-05-23T19:38:12.816Z,2.47
2023-05-23T19:43:16.379Z,2.42
2023-05-23T19:48:19.963Z,2.00
2023-05-23T19:53:25.272Z,2.53
2023-05-23T19:58:28.879Z,2.40
2023-05-23T20:03:32.263Z,2.70
2023-05-23T20:08:36.981Z,2.55
2023-05-23T20:13:40.535Z,2.78
2023-05-23T20:18:44.311Z,2.47
2023-05-23T20:23:49.272Z,2.60
2023-05-23T20:28:52.625Z,2.70
2023-05-23T20:33:56.156Z,2.40
2023-05-23T20:39:01.595Z,2.80
2023-05-23T20:44:05.862Z,2.50
2023-05-23T20:49:09.534Z,2.65
2023-05-23T20:54:14.256Z,3.17
2023-05-23T20:59:18.462Z,2.45
2023-05-23T21:04:21.793Z,2.78
2023-05-23T21:09:26.477Z,2.90
2023-05-23T21:14:44.686Z,2.80
2023-05-23T21:19:47.989Z,2.80
2023-05-23T21:24:52.618Z,3.00
2023-05-23T21:29:56.094Z,2.93
2023-05-23T21:34:59.456Z,3.17
2023-05-23T21:40:04.493Z,3.13
2023-05-23T21:45:09.122Z,3.15
2023-05-23T21:50:12.906Z,2.70
2023-05-23T21:55:17.584Z,2.80
2023-05-23T22:00:22.786Z,2.80
2023-05-23T22:05:26.718Z,3.10
2023-05-23T22:10:32.180Z,2.90
2023-05-23T22:15:36.900Z,3.10
2023-05-23T22:20:40.488Z,3.20
2023-05-23T22:25:45.992Z,3.43
2023-05-23T22:30:49.306Z,3.33
2023-05-23T22:35:52.596Z,3.30
2023-05-23T22:40:57.261Z,3.30
2023-05-23T22:46:00.540Z,3.25
2023-05-23T22:51:04.045Z,3.53
2023-05-23T22:56:08.959Z,3.25
2023-05-23T23:01:12.307Z,3.27
2023-05-23T23:06:15.749Z,3.70
2023-05-23T23:11:21.211Z,3.90
2023-05-23T23:16:24.639Z,3.90
2023-05-23T23:21:27.967Z,3.80
2023-05-23T23:26:32.811Z,3.85
2023-05-23T23:31:36.185Z,3.80
2023-05-23T23:36:39.943Z,4.13
2023-05-23T23:41:44.724Z,4.10
2023-05-23T23:46:48.219Z,4.07
2023-05-23T23:51:52.197Z,3.97
2023-05-23T23:56:57.044Z,4.13
